sensor_id;sensor_type;location;lat;lon;timestamp;temperature;humidity
21944;DHT22;11136;48.778;9.126;2023-05-07T00:00:39;17.60;90.70
21944;DHT22;11136;48.778;9.126;2023-05-07T00:03:05;17.50;90.80
21944;DHT22;11136;48.778;9.126;2023-05-07T00:05:32;17.50;90.80
21944;DHT22;11136;48.778;9.126;2023-05-07T00:07:57;17.50;90.90
21944;DHT22;11136;48.778;9.126;2023-05-07T00:10:23;17.50;91.00
21944;DHT22;11136;48.778;9.126;2023-05-07T00:12:48;17.40;91.10
21944;DHT22;11136;48.778;9.126;2023-05-07T00:15:14;17.40;91.20
21944;DHT22;11136;48.778;9.126;2023-05-07T00:17:40;17.40;91.30
21944;DHT22;11136;48.778;9.126;2023-05-07T00:20:06;17.40;91.30
21944;DHT22;11136;48.778;9.126;2023-05-07T00:22:32;17.40;91.40
21944;DHT22;11136;48.778;9.126;2023-05-07T00:24:58;17.40;91.60
21944;DHT22;11136;48.778;9.126;2023-05-07T00:27:24;17.30;91.60
21944;DHT22;11136;48.778;9.126;2023-05-07T00:29:49;17.30;91.70
21944;DHT22;11136;48.778;9.126;2023-05-07T00:32:15;17.30;91.80
21944;DHT22;11136;48.778;9.126;2023-05-07T00:34:41;17.30;91.90
21944;DHT22;11136;48.778;9.126;2023-05-07T00:37:06;17.20;92.00
21944;DHT22;11136;48.778;9.126;2023-05-07T00:39:36;17.20;92.00
21944;DHT22;11136;48.778;9.126;2023-05-07T00:42:01;17.20;92.10
21944;DHT22;11136;48.778;9.126;2023-05-07T00:44:28;17.20;92.20
21944;DHT22;11136;48.778;9.126;2023-05-07T00:46:56;17.10;92.30
21944;DHT22;11136;48.778;9.126;2023-05-07T00:49:26;17.10;92.40
21944;DHT22;11136;48.778;9.126;2023-05-07T00:51:58;17.10;92.50
21944;DHT22;11136;48.778;9.126;2023-05-07T00:54:26;17.10;92.60
21944;DHT22;11136;48.778;9.126;2023-05-07T00:56:51;17.00;92.60
21944;DHT22;11136;48.778;9.126;2023-05-07T00:59:17;17.00;92.70
21944;DHT22;11136;48.778;9.126;2023-05-07T01:01:43;17.00;92.80
21944;DHT22;11136;48.778;9.126;2023-05-07T01:04:08;17.00;92.90
21944;DHT22;11136;48.778;9.126;2023-05-07T01:06:34;17.00;93.00
21944;DHT22;11136;48.778;9.126;2023-05-07T01:09:00;17.00;93.10
21944;DHT22;11136;48.778;9.126;2023-05-07T01:11:27;16.90;93.10
21944;DHT22;11136;48.778;9.126;2023-05-07T01:13:53;16.90;93.10
21944;DHT22;11136;48.778;9.126;2023-05-07T01:16:19;16.90;93.10
21944;DHT22;11136;48.778;9.126;2023-05-07T01:18:44;16.90;93.20
21944;DHT22;11136;48.778;9.126;2023-05-07T01:21:11;16.90;93.30
21944;DHT22;11136;48.778;9.126;2023-05-07T01:23:37;16.80;93.40
21944;DHT22;11136;48.778;9.126;2023-05-07T01:26:03;16.80;93.50
21944;DHT22;11136;48.778;9.126;2023-05-07T01:28:29;17.00;93.60
21944;DHT22;11136;48.778;9.126;2023-05-07T01:30:58;16.80;93.60
21944;DHT22;11136;48.778;9.126;2023-05-07T01:33:26;16.70;93.60
21944;DHT22;11136;48.778;9.126;2023-05-07T01:35:55;16.70;93.70
21944;DHT22;11136;48.778;9.126;2023-05-07T01:38:23;16.70;93.80
21944;DHT22;11136;48.778;9.126;2023-05-07T01:40:49;16.80;93.90
21944;DHT22;11136;48.778;9.126;2023-05-07T01:43:15;16.70;94.00
21944;DHT22;11136;48.778;9.126;2023-05-07T01:45:42;16.60;94.00
21944;DHT22;11136;48.778;9.126;2023-05-07T01:48:09;16.60;94.10
21944;DHT22;11136;48.778;9.126;2023-05-07T01:51:06;16.70;94.30
21944;DHT22;11136;48.778;9.126;2023-05-07T01:53:37;16.60;94.40
21944;DHT22;11136;48.778;9.126;2023-05-07T01:56:02;16.60;94.40
21944;DHT22;11136;48.778;9.126;2023-05-07T01:58:28;16.60;94.40
21944;DHT22;11136;48.778;9.126;2023-05-07T02:00:53;16.50;94.50
21944;DHT22;11136;48.778;9.126;2023-05-07T02:03:19;16.50;94.60
21944;DHT22;11136;48.778;9.126;2023-05-07T02:05:45;16.50;94.70
21944;DHT22;11136;48.778;9.126;2023-05-07T02:08:10;16.50;94.80
21944;DHT22;11136;48.778;9.126;2023-05-07T02:10:36;16.40;94.90
21944;DHT22;11136;48.778;9.126;2023-05-07T02:13:02;16.50;95.00
21944;DHT22;11136;48.778;9.126;2023-05-07T02:15:27;16.50;95.10
21944;DHT22;11136;48.778;9.126;2023-05-07T02:18:08;16.40;95.20
21944;DHT22;11136;48.778;9.126;2023-05-07T02:20:34;16.50;95.30
21944;DHT22;11136;48.778;9.126;2023-05-07T02:23:00;16.40;95.30
21944;DHT22;11136;48.778;9.126;2023-05-07T02:25:26;16.40;95.40
21944;DHT22;11136;48.778;9.126;2023-05-07T02:27:51;16.40;95.50
21944;DHT22;11136;48.778;9.126;2023-05-07T02:30:17;16.40;95.60
21944;DHT22;11136;48.778;9.126;2023-05-07T02:32:43;16.40;95.70
21944;DHT22;11136;48.778;9.126;2023-05-07T02:35:09;16.40;95.70
21944;DHT22;11136;48.778;9.126;2023-05-07T02:37:35;16.40;95.80
21944;DHT22;11136;48.778;9.126;2023-05-07T02:40:01;16.40;95.90
21944;DHT22;11136;48.778;9.126;2023-05-07T02:42:26;16.40;95.90
21944;DHT22;11136;48.778;9.126;2023-05-07T02:44:52;16.40;96.40
21944;DHT22;11136;48.778;9.126;2023-05-07T02:47:17;16.40;96.10
21944;DHT22;11136;48.778;9.126;2023-05-07T02:49:43;16.30;96.10
21944;DHT22;11136;48.778;9.126;2023-05-07T02:52:09;16.30;96.10
21944;DHT22;11136;48.778;9.126;2023-05-07T02:54:34;16.30;96.20
21944;DHT22;11136;48.778;9.126;2023-05-07T02:57:00;16.30;96.20
21944;DHT22;11136;48.778;9.126;2023-05-07T02:59:26;16.20;96.30
21944;DHT22;11136;48.778;9.126;2023-05-07T03:01:51;16.20;96.30
21944;DHT22;11136;48.778;9.126;2023-05-07T03:04:17;16.20;96.80
21944;DHT22;11136;48.778;9.126;2023-05-07T03:06:43;16.10;96.50
21944;DHT22;11136;48.778;9.126;2023-05-07T03:09:08;16.10;96.50
21944;DHT22;11136;48.778;9.126;2023-05-07T03:11:34;16.00;96.60
21944;DHT22;11136;48.778;9.126;2023-05-07T03:14:02;16.00;96.70
21944;DHT22;11136;48.778;9.126;2023-05-07T03:16:28;16.00;96.70
21944;DHT22;11136;48.778;9.126;2023-05-07T03:18:53;16.20;96.80
21944;DHT22;11136;48.778;9.126;2023-05-07T03:21:19;15.90;96.80
21944;DHT22;11136;48.778;9.126;2023-05-07T03:23:44;15.90;96.90
21944;DHT22;11136;48.778;9.126;2023-05-07T03:26:10;15.90;96.90
21944;DHT22;11136;48.778;9.126;2023-05-07T03:28:36;15.80;96.90
21944;DHT22;11136;48.778;9.126;2023-05-07T03:31:02;15.80;96.90
21944;DHT22;11136;48.778;9.126;2023-05-07T03:33:28;15.80;97.00
21944;DHT22;11136;48.778;9.126;2023-05-07T03:35:54;15.70;97.00
21944;DHT22;11136;48.778;9.126;2023-05-07T03:38:20;15.70;97.10
21944;DHT22;11136;48.778;9.126;2023-05-07T03:40:46;15.60;97.10
21944;DHT22;11136;48.778;9.126;2023-05-07T03:43:11;15.60;97.20
21944;DHT22;11136;48.778;9.126;2023-05-07T03:45:37;15.60;97.20
21944;DHT22;11136;48.778;9.126;2023-05-07T03:48:03;15.50;97.30
21944;DHT22;11136;48.778;9.126;2023-05-07T03:50:28;15.50;97.30
21944;DHT22;11136;48.778;9.126;2023-05-07T03:52:54;15.50;97.30
21944;DHT22;11136;48.778;9.126;2023-05-07T03:55:19;15.50;97.40
21944;DHT22;11136;48.778;9.126;2023-05-07T03:57:47;15.40;97.40
21944;DHT22;11136;48.778;9.126;2023-05-07T04:00:13;15.40;97.50
21944;DHT22;11136;48.778;9.126;2023-05-07T04:02:39;15.40;97.50
21944;DHT22;11136;48.778;9.126;2023-05-07T04:05:05;15.40;97.50
21944;DHT22;11136;48.778;9.126;2023-05-07T04:07:30;15.40;97.60
21944;DHT22;11136;48.778;9.126;2023-05-07T04:09:56;15.40;97.70
21944;DHT22;11136;48.778;9.126;2023-05-07T04:12:21;15.30;97.70
21944;DHT22;11136;48.778;9.126;2023-05-07T04:14:47;15.30;97.70
21944;DHT22;11136;48.778;9.126;2023-05-07T04:17:13;15.30;97.80
21944;DHT22;11136;48.778;9.126;2023-05-07T04:19:38;15.30;97.80
21944;DHT22;11136;48.778;9.126;2023-05-07T04:22:04;15.30;97.90
21944;DHT22;11136;48.778;9.126;2023-05-07T04:24:33;15.30;97.90
21944;DHT22;11136;48.778;9.126;2023-05-07T04:26:58;15.30;98.00
21944;DHT22;11136;48.778;9.126;2023-05-07T04:29:24;15.30;98.00
21944;DHT22;11136;48.778;9.126;2023-05-07T04:31:49;15.30;98.00
21944;DHT22;11136;48.778;9.126;2023-05-07T04:34:15;15.30;98.10
21944;DHT22;11136;48.778;9.126;2023-05-07T04:36:41;15.30;98.10
21944;DHT22;11136;48.778;9.126;2023-05-07T04:39:07;15.30;98.20
21944;DHT22;11136;48.778;9.126;2023-05-07T04:41:36;15.20;98.20
21944;DHT22;11136;48.778;9.126;2023-05-07T04:44:01;15.30;98.30
21944;DHT22;11136;48.778;9.126;2023-05-07T04:46:29;15.30;98.30
21944;DHT22;11136;48.778;9.126;2023-05-07T04:48:55;15.30;98.40
21944;DHT22;11136;48.778;9.126;2023-05-07T04:51:20;15.20;98.30
21944;DHT22;11136;48.778;9.126;2023-05-07T04:53:46;15.20;98.40
21944;DHT22;11136;48.778;9.126;2023-05-07T04:56:12;15.20;98.50
21944;DHT22;11136;48.778;9.126;2023-05-07T04:58:37;15.20;98.50
21944;DHT22;11136;48.778;9.126;2023-05-07T05:01:03;15.20;98.60
21944;DHT22;11136;48.778;9.126;2023-05-07T05:03:30;15.20;98.60
21944;DHT22;11136;48.778;9.126;2023-05-07T05:05:55;15.20;98.70
21944;DHT22;11136;48.778;9.126;2023-05-07T05:08:22;15.20;98.80
21944;DHT22;11136;48.778;9.126;2023-05-07T05:10:47;15.20;98.90
21944;DHT22;11136;48.778;9.126;2023-05-07T05:13:15;15.20;99.00
21944;DHT22;11136;48.778;9.126;2023-05-07T05:15:47;15.20;99.10
21944;DHT22;11136;48.778;9.126;2023-05-07T05:18:13;15.20;99.20
21944;DHT22;11136;48.778;9.126;2023-05-07T05:20:39;15.20;99.20
21944;DHT22;11136;48.778;9.126;2023-05-07T05:23:04;15.20;99.30
21944;DHT22;11136;48.778;9.126;2023-05-07T05:25:31;15.20;99.30
21944;DHT22;11136;48.778;9.126;2023-05-07T05:27:56;15.20;99.50
21944;DHT22;11136;48.778;9.126;2023-05-07T05:30:22;15.20;99.50
21944;DHT22;11136;48.778;9.126;2023-05-07T05:32:48;15.30;99.60
21944;DHT22;11136;48.778;9.126;2023-05-07T05:35:13;15.20;99.70
21944;DHT22;11136;48.778;9.126;2023-05-07T05:37:39;15.30;99.90
21944;DHT22;11136;48.778;9.126;2023-05-07T05:40:05;15.30;99.90
21944;DHT22;11136;48.778;9.126;2023-05-07T05:42:31;15.40;99.90
21944;DHT22;11136;48.778;9.126;2023-05-07T05:44:56;15.40;99.90
21944;DHT22;11136;48.778;9.126;2023-05-07T05:47:22;15.40;99.90
21944;DHT22;11136;48.778;9.126;2023-05-07T05:49:48;15.40;99.90
21944;DHT22;11136;48.778;9.126;2023-05-07T05:52:14;15.50;99.90
21944;DHT22;11136;48.778;9.126;2023-05-07T05:54:42;15.50;99.90
21944;DHT22;11136;48.778;9.126;2023-05-07T05:57:07;15.40;99.90
21944;DHT22;11136;48.778;9.126;2023-05-07T05:59:33;15.60;99.90
21944;DHT22;11136;48.778;9.126;2023-05-07T06:01:59;15.60;99.90
21944;DHT22;11136;48.778;9.126;2023-05-07T06:04:24;15.70;99.90
21944;DHT22;11136;48.778;9.126;2023-05-07T06:06:50;15.70;99.90
21944;DHT22;11136;48.778;9.126;2023-05-07T06:09:16;15.80;99.90
21944;DHT22;11136;48.778;9.126;2023-05-07T06:11:42;15.90;99.90
21944;DHT22;11136;48.778;9.126;2023-05-07T06:14:08;16.00;99.90
21944;DHT22;11136;48.778;9.126;2023-05-07T06:16:33;16.10;99.90
21944;DHT22;11136;48.778;9.126;2023-05-07T06:18:59;16.20;99.90
21944;DHT22;11136;48.778;9.126;2023-05-07T06:21:25;16.30;99.90
21944;DHT22;11136;48.778;9.126;2023-05-07T06:23:50;16.40;99.90
21944;DHT22;11136;48.778;9.126;2023-05-07T06:26:17;16.40;99.90
21944;DHT22;11136;48.778;9.126;2023-05-07T06:28:43;16.70;99.90
21944;DHT22;11136;48.778;9.126;2023-05-07T06:31:15;16.50;99.90
21944;DHT22;11136;48.778;9.126;2023-05-07T06:33:41;16.50;99.90
21944;DHT22;11136;48.778;9.126;2023-05-07T06:36:07;16.60;99.90
21944;DHT22;11136;48.778;9.126;2023-05-07T06:38:33;16.60;99.90
21944;DHT22;11136;48.778;9.126;2023-05-07T06:40:59;16.60;99.90
21944;DHT22;11136;48.778;9.126;2023-05-07T06:43:24;16.60;99.90
21944;DHT22;11136;48.778;9.126;2023-05-07T06:45:50;16.70;99.90
21944;DHT22;11136;48.778;9.126;2023-05-07T06:48:15;16.70;99.90
21944;DHT22;11136;48.778;9.126;2023-05-07T06:50:42;16.70;99.90
21944;DHT22;11136;48.778;9.126;2023-05-07T06:53:07;16.70;99.90
21944;DHT22;11136;48.778;9.126;2023-05-07T06:55:33;16.80;99.90
21944;DHT22;11136;48.778;9.126;2023-05-07T06:57:58;16.90;99.90
21944;DHT22;11136;48.778;9.126;2023-05-07T07:00:26;16.90;99.90
21944;DHT22;11136;48.778;9.126;2023-05-07T07:02:53;17.00;99.90
21944;DHT22;11136;48.778;9.126;2023-05-07T07:05:18;17.00;99.90
21944;DHT22;11136;48.778;9.126;2023-05-07T07:07:44;17.10;99.90
21944;DHT22;11136;48.778;9.126;2023-05-07T07:10:10;17.20;99.90
21944;DHT22;11136;48.778;9.126;2023-05-07T07:12:35;17.30;99.90
21944;DHT22;11136;48.778;9.126;2023-05-07T07:15:01;17.40;99.90
21944;DHT22;11136;48.778;9.126;2023-05-07T07:17:27;17.40;99.90
21944;DHT22;11136;48.778;9.126;2023-05-07T07:19:53;17.50;99.90
21944;DHT22;11136;48.778;9.126;2023-05-07T07:22:19;17.60;99.90
21944;DHT22;11136;48.778;9.126;2023-05-07T07:24:45;17.70;99.90
21944;DHT22;11136;48.778;9.126;2023-05-07T07:27:10;17.80;99.90
21944;DHT22;11136;48.778;9.126;2023-05-07T07:29:36;17.90;99.90
21944;DHT22;11136;48.778;9.126;2023-05-07T07:32:02;18.00;99.90
21944;DHT22;11136;48.778;9.126;2023-05-07T07:34:27;18.20;99.90
21944;DHT22;11136;48.778;9.126;2023-05-07T07:36:53;18.30;99.80
21944;DHT22;11136;48.778;9.126;2023-05-07T07:39:18;18.40;99.70
21944;DHT22;11136;48.778;9.126;2023-05-07T07:41:44;18.50;99.50
21944;DHT22;11136;48.778;9.126;2023-05-07T07:44:09;18.60;99.40
21944;DHT22;11136;48.778;9.126;2023-05-07T07:46:38;18.80;99.30
21944;DHT22;11136;48.778;9.126;2023-05-07T07:49:03;18.90;99.20
21944;DHT22;11136;48.778;9.126;2023-05-07T07:51:29;19.00;98.90
21944;DHT22;11136;48.778;9.126;2023-05-07T07:53:55;19.10;98.70
21944;DHT22;11136;48.778;9.126;2023-05-07T07:56:23;19.30;98.40
21944;DHT22;11136;48.778;9.126;2023-05-07T07:58:49;19.60;98.10
21944;DHT22;11136;48.778;9.126;2023-05-07T08:01:14;19.40;97.90
21944;DHT22;11136;48.778;9.126;2023-05-07T08:03:41;19.40;97.80
21944;DHT22;11136;48.778;9.126;2023-05-07T08:06:07;19.40;97.70
21944;DHT22;11136;48.778;9.126;2023-05-07T08:08:33;19.60;97.60
21944;DHT22;11136;48.778;9.126;2023-05-07T08:10:58;19.50;97.40
21944;DHT22;11136;48.778;9.126;2023-05-07T08:13:24;19.60;97.80
21944;DHT22;11136;48.778;9.126;2023-05-07T08:15:49;19.60;97.50
21944;DHT22;11136;48.778;9.126;2023-05-07T08:18:15;19.70;97.30
21944;DHT22;11136;48.778;9.126;2023-05-07T08:20:41;19.70;97.20
21944;DHT22;11136;48.778;9.126;2023-05-07T08:23:06;19.90;97.10
21944;DHT22;11136;48.778;9.126;2023-05-07T08:25:36;20.10;97.30
21944;DHT22;11136;48.778;9.126;2023-05-07T08:28:01;20.40;97.50
21944;DHT22;11136;48.778;9.126;2023-05-07T08:30:28;20.90;97.10
21944;DHT22;11136;48.778;9.126;2023-05-07T08:32:54;21.20;96.10
21944;DHT22;11136;48.778;9.126;2023-05-07T08:35:20;21.30;95.30
21944;DHT22;11136;48.778;9.126;2023-05-07T08:37:45;21.30;95.00
21944;DHT22;11136;48.778;9.126;2023-05-07T08:40:11;21.20;94.20
21944;DHT22;11136;48.778;9.126;2023-05-07T08:42:37;21.20;94.10
21944;DHT22;11136;48.778;9.126;2023-05-07T08:45:04;21.10;94.10
21944;DHT22;11136;48.778;9.126;2023-05-07T08:47:43;21.00;93.80
21944;DHT22;11136;48.778;9.126;2023-05-07T08:50:12;20.90;94.00
21944;DHT22;11136;48.778;9.126;2023-05-07T08:52:39;20.90;94.00
21944;DHT22;11136;48.778;9.126;2023-05-07T08:55:07;20.80;93.90
21944;DHT22;11136;48.778;9.126;2023-05-07T08:57:32;20.80;94.10
21944;DHT22;11136;48.778;9.126;2023-05-07T08:59:58;20.80;94.40
21944;DHT22;11136;48.778;9.126;2023-05-07T09:02:23;20.90;94.60
21944;DHT22;11136;48.778;9.126;2023-05-07T09:04:49;21.00;94.40
21944;DHT22;11136;48.778;9.126;2023-05-07T09:07:16;21.20;94.40
21944;DHT22;11136;48.778;9.126;2023-05-07T09:09:44;21.50;94.30
21944;DHT22;11136;48.778;9.126;2023-05-07T09:12:09;21.80;93.90
21944;DHT22;11136;48.778;9.126;2023-05-07T09:14:35;22.20;93.80
21944;DHT22;11136;48.778;9.126;2023-05-07T09:17:01;22.60;93.60
21944;DHT22;11136;48.778;9.126;2023-05-07T09:19:27;23.00;93.40
21944;DHT22;11136;48.778;9.126;2023-05-07T09:22:03;23.40;92.40
21944;DHT22;11136;48.778;9.126;2023-05-07T09:24:30;23.70;91.50
21944;DHT22;11136;48.778;9.126;2023-05-07T09:27:00;24.00;90.70
21944;DHT22;11136;48.778;9.126;2023-05-07T09:29:27;24.30;90.50
21944;DHT22;11136;48.778;9.126;2023-05-07T09:31:54;24.40;90.30
21944;DHT22;11136;48.778;9.126;2023-05-07T09:34:20;24.70;89.70
21944;DHT22;11136;48.778;9.126;2023-05-07T09:36:46;24.90;88.70
21944;DHT22;11136;48.778;9.126;2023-05-07T09:39:13;25.10;87.60
21944;DHT22;11136;48.778;9.126;2023-05-07T09:41:45;25.30;86.00
21944;DHT22;11136;48.778;9.126;2023-05-07T09:44:11;25.60;84.70
21944;DHT22;11136;48.778;9.126;2023-05-07T09:46:38;25.70;83.80
21944;DHT22;11136;48.778;9.126;2023-05-07T09:49:07;25.80;82.80
21944;DHT22;11136;48.778;9.126;2023-05-07T09:51:41;25.90;82.10
21944;DHT22;11136;48.778;9.126;2023-05-07T09:54:08;26.00;78.90
21944;DHT22;11136;48.778;9.126;2023-05-07T09:56:35;26.00;79.20
21944;DHT22;11136;48.778;9.126;2023-05-07T09:59:03;26.00;79.00
21944;DHT22;11136;48.778;9.126;2023-05-07T10:01:31;26.10;78.60
21944;DHT22;11136;48.778;9.126;2023-05-07T10:03:58;26.30;78.20
21944;DHT22;11136;48.778;9.126;2023-05-07T10:06:25;26.00;76.60
21944;DHT22;11136;48.778;9.126;2023-05-07T10:08:54;26.20;76.50
21944;DHT22;11136;48.778;9.126;2023-05-07T10:11:22;25.90;77.10
21944;DHT22;11136;48.778;9.126;2023-05-07T10:13:48;25.80;76.20
21944;DHT22;11136;48.778;9.126;2023-05-07T10:16:14;25.80;76.30
21944;DHT22;11136;48.778;9.126;2023-05-07T10:18:43;25.80;74.60
21944;DHT22;11136;48.778;9.126;2023-05-07T10:21:20;25.70;74.20
21944;DHT22;11136;48.778;9.126;2023-05-07T10:23:58;25.60;73.70
21944;DHT22;11136;48.778;9.126;2023-05-07T10:26:25;25.50;74.40
21944;DHT22;11136;48.778;9.126;2023-05-07T10:29:06;25.50;75.50
21944;DHT22;11136;48.778;9.126;2023-05-07T10:34:08;25.60;75.20
21944;DHT22;11136;48.778;9.126;2023-05-07T10:36:35;25.70;75.40
21944;DHT22;11136;48.778;9.126;2023-05-07T10:39:01;25.90;75.50
21944;DHT22;11136;48.778;9.126;2023-05-07T10:41:27;26.00;75.30
21944;DHT22;11136;48.778;9.126;2023-05-07T10:43:53;26.10;73.70
21944;DHT22;11136;48.778;9.126;2023-05-07T10:46:20;26.20;73.20
21944;DHT22;11136;48.778;9.126;2023-05-07T10:51:29;26.10;71.60
21944;DHT22;11136;48.778;9.126;2023-05-07T10:56:39;26.00;71.20
21944;DHT22;11136;48.778;9.126;2023-05-07T11:01:56;26.20;72.10
21944;DHT22;11136;48.778;9.126;2023-05-07T11:04:23;26.20;72.80
21944;DHT22;11136;48.778;9.126;2023-05-07T11:10:00;26.30;71.70
21944;DHT22;11136;48.778;9.126;2023-05-07T11:15:08;26.30;70.50
21944;DHT22;11136;48.778;9.126;2023-05-07T11:17:35;26.20;70.10
21944;DHT22;11136;48.778;9.126;2023-05-07T11:20:17;26.40;70.10
21944;DHT22;11136;48.778;9.126;2023-05-07T11:22:42;26.00;69.90
21944;DHT22;11136;48.778;9.126;2023-05-07T11:25:08;25.90;70.20
21944;DHT22;11136;48.778;9.126;2023-05-07T11:27:34;25.80;70.40
21944;DHT22;11136;48.778;9.126;2023-05-07T11:30:00;25.60;70.00
21944;DHT22;11136;48.778;9.126;2023-05-07T11:32:31;25.50;70.50
21944;DHT22;11136;48.778;9.126;2023-05-07T11:35:00;25.40;70.50
21944;DHT22;11136;48.778;9.126;2023-05-07T11:37:27;25.30;70.40
21944;DHT22;11136;48.778;9.126;2023-05-07T11:40:08;25.10;69.70
21944;DHT22;11136;48.778;9.126;2023-05-07T11:42:37;25.10;69.20
21944;DHT22;11136;48.778;9.126;2023-05-07T11:45:04;25.00;70.60
21944;DHT22;11136;48.778;9.126;2023-05-07T11:47:31;24.90;73.60
21944;DHT22;11136;48.778;9.126;2023-05-07T11:50:08;24.70;78.90
21944;DHT22;11136;48.778;9.126;2023-05-07T11:52:34;24.60;83.50
21944;DHT22;11136;48.778;9.126;2023-05-07T11:55:00;24.50;87.20
21944;DHT22;11136;48.778;9.126;2023-05-07T11:57:27;24.30;86.50
21944;DHT22;11136;48.778;9.126;2023-05-07T11:59:56;24.00;83.60
21944;DHT22;11136;48.778;9.126;2023-05-07T12:02:24;23.90;85.30
21944;DHT22;11136;48.778;9.126;2023-05-07T12:04:53;23.70;88.00
21944;DHT22;11136;48.778;9.126;2023-05-07T12:07:19;23.50;90.10
21944;DHT22;11136;48.778;9.126;2023-05-07T12:09:45;23.20;91.10
21944;DHT22;11136;48.778;9.126;2023-05-07T12:12:13;22.80;91.80
21944;DHT22;11136;48.778;9.126;2023-05-07T12:14:41;22.60;92.40
21944;DHT22;11136;48.778;9.126;2023-05-07T12:17:08;22.30;93.20
21944;DHT22;11136;48.778;9.126;2023-05-07T12:19:39;22.10;94.00
21944;DHT22;11136;48.778;9.126;2023-05-07T12:22:07;21.80;94.20
21944;DHT22;11136;48.778;9.126;2023-05-07T12:24:45;21.50;94.30
21944;DHT22;11136;48.778;9.126;2023-05-07T12:27:11;21.30;94.00
21944;DHT22;11136;48.778;9.126;2023-05-07T12:29:38;21.10;94.70
21944;DHT22;11136;48.778;9.126;2023-05-07T12:32:13;20.70;95.50
21944;DHT22;11136;48.778;9.126;2023-05-07T12:34:40;20.70;95.40
21944;DHT22;11136;48.778;9.126;2023-05-07T12:37:06;20.50;95.30
21944;DHT22;11136;48.778;9.126;2023-05-07T12:39:31;20.40;96.20
21944;DHT22;11136;48.778;9.126;2023-05-07T12:41:58;20.40;97.20
21944;DHT22;11136;48.778;9.126;2023-05-07T12:44:34;20.40;98.00
21944;DHT22;11136;48.778;9.126;2023-05-07T12:47:03;20.40;98.10
21944;DHT22;11136;48.778;9.126;2023-05-07T12:49:29;20.40;97.80
21944;DHT22;11136;48.778;9.126;2023-05-07T12:51:54;20.30;97.80
21944;DHT22;11136;48.778;9.126;2023-05-07T12:54:34;20.30;97.10
21944;DHT22;11136;48.778;9.126;2023-05-07T12:57:08;20.20;97.10
21944;DHT22;11136;48.778;9.126;2023-05-07T12:59:38;20.20;97.90
21944;DHT22;11136;48.778;9.126;2023-05-07T13:02:05;20.20;97.90
21944;DHT22;11136;48.778;9.126;2023-05-07T13:04:31;20.20;97.50
21944;DHT22;11136;48.778;9.126;2023-05-07T13:06:57;20.20;98.20
21944;DHT22;11136;48.778;9.126;2023-05-07T13:09:23;20.20;98.40
21944;DHT22;11136;48.778;9.126;2023-05-07T13:11:48;20.20;98.30
21944;DHT22;11136;48.778;9.126;2023-05-07T13:14:14;20.10;98.00
21944;DHT22;11136;48.778;9.126;2023-05-07T13:16:40;20.00;97.60
21944;DHT22;11136;48.778;9.126;2023-05-07T13:19:06;19.80;97.10
21944;DHT22;11136;48.778;9.126;2023-05-07T13:21:31;19.70;97.20
21944;DHT22;11136;48.778;9.126;2023-05-07T13:23:58;19.50;97.70
21944;DHT22;11136;48.778;9.126;2023-05-07T13:26:24;19.30;97.50
21944;DHT22;11136;48.778;9.126;2023-05-07T13:28:50;19.20;97.30
21944;DHT22;11136;48.778;9.126;2023-05-07T13:31:17;19.20;97.40
21944;DHT22;11136;48.778;9.126;2023-05-07T13:33:43;19.10;97.40
21944;DHT22;11136;48.778;9.126;2023-05-07T13:36:08;19.10;97.80
21944;DHT22;11136;48.778;9.126;2023-05-07T13:38:34;19.10;97.60
21944;DHT22;11136;48.778;9.126;2023-05-07T13:41:00;19.10;98.30
21944;DHT22;11136;48.778;9.126;2023-05-07T13:43:27;19.20;98.20
21944;DHT22;11136;48.778;9.126;2023-05-07T13:45:52;19.50;98.00
21944;DHT22;11136;48.778;9.126;2023-05-07T13:48:18;19.30;98.60
21944;DHT22;11136;48.778;9.126;2023-05-07T13:50:44;19.30;99.60
21944;DHT22;11136;48.778;9.126;2023-05-07T13:53:09;19.40;99.40
21944;DHT22;11136;48.778;9.126;2023-05-07T13:55:35;19.40;99.50
21944;DHT22;11136;48.778;9.126;2023-05-07T13:58:02;19.40;99.30
21944;DHT22;11136;48.778;9.126;2023-05-07T14:00:29;19.40;98.90
21944;DHT22;11136;48.778;9.126;2023-05-07T14:02:55;19.40;98.60
21944;DHT22;11136;48.778;9.126;2023-05-07T14:05:21;19.20;98.20
21944;DHT22;11136;48.778;9.126;2023-05-07T14:07:50;18.90;98.10
21944;DHT22;11136;48.778;9.126;2023-05-07T14:10:19;19.00;98.60
21944;DHT22;11136;48.778;9.126;2023-05-07T14:12:46;18.50;99.10
21944;DHT22;11136;48.778;9.126;2023-05-07T14:15:12;18.30;99.60
21944;DHT22;11136;48.778;9.126;2023-05-07T14:17:37;18.20;99.90
21944;DHT22;11136;48.778;9.126;2023-05-07T14:20:03;18.10;99.90
21944;DHT22;11136;48.778;9.126;2023-05-07T14:22:29;17.90;99.90
21944;DHT22;11136;48.778;9.126;2023-05-07T14:24:55;17.80;99.90
21944;DHT22;11136;48.778;9.126;2023-05-07T14:27:20;17.70;99.90
21944;DHT22;11136;48.778;9.126;2023-05-07T14:29:46;17.60;99.90
21944;DHT22;11136;48.778;9.126;2023-05-07T14:32:19;17.50;99.90
21944;DHT22;11136;48.778;9.126;2023-05-07T14:34:45;17.50;99.90
21944;DHT22;11136;48.778;9.126;2023-05-07T14:37:11;17.40;99.90
21944;DHT22;11136;48.778;9.126;2023-05-07T14:39:37;17.40;99.90
21944;DHT22;11136;48.778;9.126;2023-05-07T14:42:02;17.40;99.90
21944;DHT22;11136;48.778;9.126;2023-05-07T14:44:28;17.40;99.90
21944;DHT22;11136;48.778;9.126;2023-05-07T14:46:54;17.30;99.90
21944;DHT22;11136;48.778;9.126;2023-05-07T14:49:20;17.40;99.90
21944;DHT22;11136;48.778;9.126;2023-05-07T14:51:46;17.60;99.90
21944;DHT22;11136;48.778;9.126;2023-05-07T14:54:15;17.40;99.90
21944;DHT22;11136;48.778;9.126;2023-05-07T14:56:41;17.40;99.90
21944;DHT22;11136;48.778;9.126;2023-05-07T14:59:08;17.40;99.90
21944;DHT22;11136;48.778;9.126;2023-05-07T15:01:37;17.40;99.90
21944;DHT22;11136;48.778;9.126;2023-05-07T15:04:03;17.40;99.90
21944;DHT22;11136;48.778;9.126;2023-05-07T15:06:30;17.40;99.90
21944;DHT22;11136;48.778;9.126;2023-05-07T15:08:56;17.40;99.90
21944;DHT22;11136;48.778;9.126;2023-05-07T15:11:22;17.50;99.90
21944;DHT22;11136;48.778;9.126;2023-05-07T15:13:47;17.50;99.90
21944;DHT22;11136;48.778;9.126;2023-05-07T15:16:13;17.60;99.90
21944;DHT22;11136;48.778;9.126;2023-05-07T15:18:39;17.60;99.90
21944;DHT22;11136;48.778;9.126;2023-05-07T15:21:04;17.80;99.90
21944;DHT22;11136;48.778;9.126;2023-05-07T15:23:30;17.70;99.90
21944;DHT22;11136;48.778;9.126;2023-05-07T15:25:56;17.80;99.90
21944;DHT22;11136;48.778;9.126;2023-05-07T15:28:21;17.80;99.90
21944;DHT22;11136;48.778;9.126;2023-05-07T15:30:47;17.90;99.90
21944;DHT22;11136;48.778;9.126;2023-05-07T15:33:14;17.90;99.90
21944;DHT22;11136;48.778;9.126;2023-05-07T15:35:39;18.00;99.90
21944;DHT22;11136;48.778;9.126;2023-05-07T15:38:05;18.10;99.90
21944;DHT22;11136;48.778;9.126;2023-05-07T15:40:31;18.10;99.90
21944;DHT22;11136;48.778;9.126;2023-05-07T15:42:56;18.20;99.90